Terminal Aerodrome Forecast
Issued by NWS

Home | Current Version | Previous Version | Text Only | Print | Product List | Glossary On
Versions: 1 2 3 4 5 6 7 8 9 10 11 12 13 14 15 16 17 18 19 20 21 22 23 24 25 26 27 28 29 30 31 32 33 34 35 36 37 38 39
236
FTAK31 PAFG 151721
TAFAQT
TAF
PAQT 151721Z 1518/1618 07009KT 6SM BR SKC
     FM160600 07010KT 5SM BR VCFG BKN007 OVC015
     FM161200 08008KT 2SM BR OVC007
     FM161400 07010KT 5SM BR BKN007
     FM161600 07011KT 6SM BR SKC=

USA.gov is the U.S. government's official web portal to all federal, state and local government web resources and services.